sensor_id;sensor_type;location;lat;lon;timestamp;P1;durP1;ratioP1;P2;durP2;ratioP2
29200;SDS011;16244;51.956;12.980;2022-09-24T00:01:20;8.10;;;6.10;;
29200;SDS011;16244;51.956;12.980;2022-09-24T00:03:49;12.43;;;5.80;;
29200;SDS011;16244;51.956;12.980;2022-09-24T00:06:18;7.33;;;5.73;;
29200;SDS011;16244;51.956;12.980;2022-09-24T00:08:48;11.00;;;7.63;;
29200;SDS011;16244;51.956;12.980;2022-09-24T00:11:18;8.33;;;5.77;;
29200;SDS011;16244;51.956;12.980;2022-09-24T00:13:46;7.03;;;5.63;;
29200;SDS011;16244;51.956;12.980;2022-09-24T00:16:15;10.00;;;6.00;;
29200;SDS011;16244;51.956;12.980;2022-09-24T00:18:43;8.27;;;6.67;;
29200;SDS011;16244;51.956;12.980;2022-09-24T00:21:11;9.40;;;6.40;;
29200;SDS011;16244;51.956;12.980;2022-09-24T00:23:41;11.13;;;6.40;;
29200;SDS011;16244;51.956;12.980;2022-09-24T00:26:12;12.73;;;6.63;;
29200;SDS011;16244;51.956;12.980;2022-09-24T00:28:57;11.10;;;7.33;;
29200;SDS011;16244;51.956;12.980;2022-09-24T00:31:25;11.17;;;6.70;;
29200;SDS011;16244;51.956;12.980;2022-09-24T00:33:53;14.83;;;7.57;;
29200;SDS011;16244;51.956;12.980;2022-09-24T00:36:20;12.50;;;6.90;;
29200;SDS011;16244;51.956;12.980;2022-09-24T00:38:48;10.60;;;7.80;;
29200;SDS011;16244;51.956;12.980;2022-09-24T00:41:19;10.57;;;7.50;;
29200;SDS011;16244;51.956;12.980;2022-09-24T00:43:51;12.80;;;7.37;;
29200;SDS011;16244;51.956;12.980;2022-09-24T00:46:19;11.67;;;7.60;;
29200;SDS011;16244;51.956;12.980;2022-09-24T00:48:52;11.77;;;7.93;;
29200;SDS011;16244;51.956;12.980;2022-09-24T00:51:24;12.13;;;7.90;;
29200;SDS011;16244;51.956;12.980;2022-09-24T00:53:54;9.40;;;6.93;;
29200;SDS011;16244;51.956;12.980;2022-09-24T00:56:24;10.20;;;7.23;;
29200;SDS011;16244;51.956;12.980;2022-09-24T00:58:53;23.20;;;7.33;;
29200;SDS011;16244;51.956;12.980;2022-09-24T01:01:23;10.53;;;7.83;;
29200;SDS011;16244;51.956;12.980;2022-09-24T01:03:52;11.33;;;7.20;;
29200;SDS011;16244;51.956;12.980;2022-09-24T01:06:21;13.10;;;7.53;;
29200;SDS011;16244;51.956;12.980;2022-09-24T01:08:48;12.20;;;7.47;;
29200;SDS011;16244;51.956;12.980;2022-09-24T01:11:18;11.00;;;7.73;;
29200;SDS011;16244;51.956;12.980;2022-09-24T01:14:04;15.20;;;8.70;;
29200;SDS011;16244;51.956;12.980;2022-09-24T01:16:44;13.33;;;8.60;;
29200;SDS011;16244;51.956;12.980;2022-09-24T01:19:33;10.67;;;7.60;;
29200;SDS011;16244;51.956;12.980;2022-09-24T01:22:21;13.10;;;8.23;;
29200;SDS011;16244;51.956;12.980;2022-09-24T01:24:59;12.27;;;8.23;;
29200;SDS011;16244;51.956;12.980;2022-09-24T01:27:33;12.23;;;9.13;;
29200;SDS011;16244;51.956;12.980;2022-09-24T01:30:15;13.10;;;8.00;;
29200;SDS011;16244;51.956;12.980;2022-09-24T01:32:44;11.73;;;8.17;;
29200;SDS011;16244;51.956;12.980;2022-09-24T01:35:18;13.60;;;7.67;;
29200;SDS011;16244;51.956;12.980;2022-09-24T01:37:50;12.37;;;8.40;;
29200;SDS011;16244;51.956;12.980;2022-09-24T01:40:21;12.80;;;8.57;;
29200;SDS011;16244;51.956;12.980;2022-09-24T01:42:51;14.63;;;8.23;;
29200;SDS011;16244;51.956;12.980;2022-09-24T01:45:23;10.93;;;8.20;;
29200;SDS011;16244;51.956;12.980;2022-09-24T01:47:56;13.70;;;9.40;;
29200;SDS011;16244;51.956;12.980;2022-09-24T01:50:25;13.03;;;8.87;;
29200;SDS011;16244;51.956;12.980;2022-09-24T01:52:57;11.67;;;7.60;;
29200;SDS011;16244;51.956;12.980;2022-09-24T01:55:32;12.20;;;8.70;;
29200;SDS011;16244;51.956;12.980;2022-09-24T01:58:04;14.33;;;9.10;;
29200;SDS011;16244;51.956;12.980;2022-09-24T02:00:36;11.30;;;8.67;;
29200;SDS011;16244;51.956;12.980;2022-09-24T02:03:07;9.77;;;7.80;;
29200;SDS011;16244;51.956;12.980;2022-09-24T02:05:39;12.27;;;8.77;;
29200;SDS011;16244;51.956;12.980;2022-09-24T02:08:11;11.70;;;8.03;;
29200;SDS011;16244;51.956;12.980;2022-09-24T02:10:41;13.17;;;8.57;;
29200;SDS011;16244;51.956;12.980;2022-09-24T02:13:13;12.70;;;8.70;;
29200;SDS011;16244;51.956;12.980;2022-09-24T02:15:44;13.80;;;9.20;;
29200;SDS011;16244;51.956;12.980;2022-09-24T02:18:16;12.43;;;9.10;;
29200;SDS011;16244;51.956;12.980;2022-09-24T02:20:47;16.00;;;9.27;;
29200;SDS011;16244;51.956;12.980;2022-09-24T02:23:18;11.33;;;8.80;;
29200;SDS011;16244;51.956;12.980;2022-09-24T02:25:48;11.50;;;7.83;;
29200;SDS011;16244;51.956;12.980;2022-09-24T02:28:19;12.77;;;9.03;;
29200;SDS011;16244;51.956;12.980;2022-09-24T02:30:49;11.10;;;8.93;;
29200;SDS011;16244;51.956;12.980;2022-09-24T02:33:20;12.50;;;8.50;;
29200;SDS011;16244;51.956;12.980;2022-09-24T02:36:08;11.50;;;8.60;;
29200;SDS011;16244;51.956;12.980;2022-09-24T02:38:37;16.33;;;9.37;;
29200;SDS011;16244;51.956;12.980;2022-09-24T02:41:07;12.07;;;8.60;;
29200;SDS011;16244;51.956;12.980;2022-09-24T02:43:35;18.60;;;9.80;;
29200;SDS011;16244;51.956;12.980;2022-09-24T02:46:07;12.10;;;8.63;;
29200;SDS011;16244;51.956;12.980;2022-09-24T02:48:34;15.60;;;9.93;;
29200;SDS011;16244;51.956;12.980;2022-09-24T02:51:02;11.70;;;8.60;;
29200;SDS011;16244;51.956;12.980;2022-09-24T02:53:30;15.10;;;8.57;;
29200;SDS011;16244;51.956;12.980;2022-09-24T02:55:58;13.00;;;8.93;;
29200;SDS011;16244;51.956;12.980;2022-09-24T02:58:26;19.47;;;9.60;;
29200;SDS011;16244;51.956;12.980;2022-09-24T03:00:54;16.60;;;10.70;;
29200;SDS011;16244;51.956;12.980;2022-09-24T03:03:26;16.60;;;9.27;;
29200;SDS011;16244;51.956;12.980;2022-09-24T03:05:53;13.20;;;9.53;;
29200;SDS011;16244;51.956;12.980;2022-09-24T03:08:21;12.87;;;9.83;;
29200;SDS011;16244;51.956;12.980;2022-09-24T03:10:50;15.60;;;9.63;;
29200;SDS011;16244;51.956;12.980;2022-09-24T03:13:19;14.07;;;9.60;;
29200;SDS011;16244;51.956;12.980;2022-09-24T03:15:46;13.53;;;10.10;;
29200;SDS011;16244;51.956;12.980;2022-09-24T03:18:15;23.03;;;10.40;;
29200;SDS011;16244;51.956;12.980;2022-09-24T03:20:52;15.20;;;9.87;;
29200;SDS011;16244;51.956;12.980;2022-09-24T03:23:21;15.30;;;10.07;;
29200;SDS011;16244;51.956;12.980;2022-09-24T03:25:51;17.00;;;10.77;;
29200;SDS011;16244;51.956;12.980;2022-09-24T03:28:18;15.30;;;9.83;;
29200;SDS011;16244;51.956;12.980;2022-09-24T03:30:46;17.43;;;10.40;;
29200;SDS011;16244;51.956;12.980;2022-09-24T03:33:25;14.00;;;10.07;;
29200;SDS011;16244;51.956;12.980;2022-09-24T03:35:57;17.60;;;9.63;;
29200;SDS011;16244;51.956;12.980;2022-09-24T03:38:26;14.90;;;10.30;;
29200;SDS011;16244;51.956;12.980;2022-09-24T03:40:54;15.03;;;9.63;;
29200;SDS011;16244;51.956;12.980;2022-09-24T03:43:21;15.17;;;9.60;;
29200;SDS011;16244;51.956;12.980;2022-09-24T03:45:49;13.83;;;9.20;;
29200;SDS011;16244;51.956;12.980;2022-09-24T03:48:17;16.40;;;10.90;;
29200;SDS011;16244;51.956;12.980;2022-09-24T03:50:45;12.43;;;9.20;;
29200;SDS011;16244;51.956;12.980;2022-09-24T03:53:14;13.30;;;9.93;;
29200;SDS011;16244;51.956;12.980;2022-09-24T03:55:42;14.93;;;10.30;;
29200;SDS011;16244;51.956;12.980;2022-09-24T03:58:11;13.40;;;9.53;;
29200;SDS011;16244;51.956;12.980;2022-09-24T04:00:38;17.10;;;10.50;;
29200;SDS011;16244;51.956;12.980;2022-09-24T04:03:05;18.07;;;9.93;;
29200;SDS011;16244;51.956;12.980;2022-09-24T04:05:33;14.27;;;10.60;;
29200;SDS011;16244;51.956;12.980;2022-09-24T04:08:00;15.90;;;10.60;;
29200;SDS011;16244;51.956;12.980;2022-09-24T04:10:31;13.10;;;9.20;;
29200;SDS011;16244;51.956;12.980;2022-09-24T04:12:58;15.13;;;9.87;;
29200;SDS011;16244;51.956;12.980;2022-09-24T04:15:25;15.40;;;10.20;;
29200;SDS011;16244;51.956;12.980;2022-09-24T04:17:53;14.10;;;9.80;;
29200;SDS011;16244;51.956;12.980;2022-09-24T04:20:22;12.00;;;9.60;;
29200;SDS011;16244;51.956;12.980;2022-09-24T04:22:51;14.20;;;9.77;;
29200;SDS011;16244;51.956;12.980;2022-09-24T04:25:19;12.93;;;9.23;;
29200;SDS011;16244;51.956;12.980;2022-09-24T04:27:52;18.17;;;8.70;;
29200;SDS011;16244;51.956;12.980;2022-09-24T04:30:20;13.83;;;9.50;;
29200;SDS011;16244;51.956;12.980;2022-09-24T04:32:48;16.70;;;10.27;;
29200;SDS011;16244;51.956;12.980;2022-09-24T04:35:16;13.60;;;10.03;;
29200;SDS011;16244;51.956;12.980;2022-09-24T04:37:43;13.27;;;8.67;;
29200;SDS011;16244;51.956;12.980;2022-09-24T04:40:11;11.50;;;8.37;;
29200;SDS011;16244;51.956;12.980;2022-09-24T04:42:38;17.67;;;9.27;;
29200;SDS011;16244;51.956;12.980;2022-09-24T04:45:08;12.77;;;8.90;;
29200;SDS011;16244;51.956;12.980;2022-09-24T04:47:37;11.63;;;8.87;;
29200;SDS011;16244;51.956;12.980;2022-09-24T04:50:05;15.30;;;8.63;;
29200;SDS011;16244;51.956;12.980;2022-09-24T04:52:34;11.27;;;9.27;;
29200;SDS011;16244;51.956;12.980;2022-09-24T04:55:01;14.47;;;8.70;;
29200;SDS011;16244;51.956;12.980;2022-09-24T04:57:28;11.63;;;8.70;;
29200;SDS011;16244;51.956;12.980;2022-09-24T04:59:57;15.37;;;9.23;;
29200;SDS011;16244;51.956;12.980;2022-09-24T05:02:25;11.17;;;8.50;;
29200;SDS011;16244;51.956;12.980;2022-09-24T05:04:53;13.53;;;9.47;;
29200;SDS011;16244;51.956;12.980;2022-09-24T05:07:20;16.40;;;10.00;;
29200;SDS011;16244;51.956;12.980;2022-09-24T05:09:47;11.10;;;8.50;;
29200;SDS011;16244;51.956;12.980;2022-09-24T05:12:14;11.60;;;9.40;;
29200;SDS011;16244;51.956;12.980;2022-09-24T05:14:42;14.37;;;9.53;;
29200;SDS011;16244;51.956;12.980;2022-09-24T05:17:09;11.20;;;8.73;;
29200;SDS011;16244;51.956;12.980;2022-09-24T05:19:37;13.43;;;8.67;;
29200;SDS011;16244;51.956;12.980;2022-09-24T05:22:04;11.13;;;8.43;;
29200;SDS011;16244;51.956;12.980;2022-09-24T05:24:31;13.23;;;9.30;;
29200;SDS011;16244;51.956;12.980;2022-09-24T05:26:58;14.20;;;9.33;;
29200;SDS011;16244;51.956;12.980;2022-09-24T05:29:35;15.00;;;9.83;;
29200;SDS011;16244;51.956;12.980;2022-09-24T05:32:04;14.43;;;8.90;;
29200;SDS011;16244;51.956;12.980;2022-09-24T05:34:32;13.40;;;9.00;;
29200;SDS011;16244;51.956;12.980;2022-09-24T05:37:01;13.40;;;9.00;;
29200;SDS011;16244;51.956;12.980;2022-09-24T05:39:28;15.47;;;9.70;;
29200;SDS011;16244;51.956;12.980;2022-09-24T05:41:55;16.27;;;9.37;;
29200;SDS011;16244;51.956;12.980;2022-09-24T05:44:23;12.17;;;9.00;;
29200;SDS011;16244;51.956;12.980;2022-09-24T05:46:50;20.53;;;9.90;;
29200;SDS011;16244;51.956;12.980;2022-09-24T05:49:18;15.70;;;9.60;;
29200;SDS011;16244;51.956;12.980;2022-09-24T05:51:46;11.70;;;9.20;;
29200;SDS011;16244;51.956;12.980;2022-09-24T05:54:15;12.17;;;8.63;;
29200;SDS011;16244;51.956;12.980;2022-09-24T05:56:43;14.80;;;9.20;;
29200;SDS011;16244;51.956;12.980;2022-09-24T05:59:11;11.57;;;8.73;;
29200;SDS011;16244;51.956;12.980;2022-09-24T06:01:38;12.30;;;8.93;;
29200;SDS011;16244;51.956;12.980;2022-09-24T06:04:05;12.30;;;8.00;;
29200;SDS011;16244;51.956;12.980;2022-09-24T06:06:33;12.90;;;9.70;;
29200;SDS011;16244;51.956;12.980;2022-09-24T06:09:00;13.00;;;9.10;;
29200;SDS011;16244;51.956;12.980;2022-09-24T06:11:28;18.50;;;9.97;;
29200;SDS011;16244;51.956;12.980;2022-09-24T06:13:59;12.83;;;8.97;;
29200;SDS011;16244;51.956;12.980;2022-09-24T06:16:27;11.90;;;8.53;;
29200;SDS011;16244;51.956;12.980;2022-09-24T06:18:54;11.93;;;9.30;;
29200;SDS011;16244;51.956;12.980;2022-09-24T06:21:22;12.17;;;8.00;;
29200;SDS011;16244;51.956;12.980;2022-09-24T06:23:49;12.97;;;8.63;;
29200;SDS011;16244;51.956;12.980;2022-09-24T06:26:16;11.83;;;8.80;;
29200;SDS011;16244;51.956;12.980;2022-09-24T06:28:44;13.07;;;8.40;;
29200;SDS011;16244;51.956;12.980;2022-09-24T06:31:11;13.77;;;8.60;;
29200;SDS011;16244;51.956;12.980;2022-09-24T06:33:39;13.73;;;8.70;;
29200;SDS011;16244;51.956;12.980;2022-09-24T06:36:07;15.00;;;10.00;;
29200;SDS011;16244;51.956;12.980;2022-09-24T06:38:34;12.83;;;8.70;;
29200;SDS011;16244;51.956;12.980;2022-09-24T06:41:03;12.90;;;8.50;;
29200;SDS011;16244;51.956;12.980;2022-09-24T06:43:31;12.97;;;9.00;;
29200;SDS011;16244;51.956;12.980;2022-09-24T06:46:01;14.77;;;8.53;;
29200;SDS011;16244;51.956;12.980;2022-09-24T06:48:29;13.20;;;7.83;;
29200;SDS011;16244;51.956;12.980;2022-09-24T06:50:56;11.43;;;8.63;;
29200;SDS011;16244;51.956;12.980;2022-09-24T06:53:23;15.70;;;7.83;;
29200;SDS011;16244;51.956;12.980;2022-09-24T06:55:51;10.77;;;6.80;;
29200;SDS011;16244;51.956;12.980;2022-09-24T06:58:22;7.50;;;5.80;;
29200;SDS011;16244;51.956;12.980;2022-09-24T07:00:50;12.20;;;6.40;;
29200;SDS011;16244;51.956;12.980;2022-09-24T07:03:20;9.50;;;6.27;;
29200;SDS011;16244;51.956;12.980;2022-09-24T07:05:47;14.67;;;6.80;;
29200;SDS011;16244;51.956;12.980;2022-09-24T07:08:15;8.70;;;6.10;;
29200;SDS011;16244;51.956;12.980;2022-09-24T07:10:43;8.90;;;5.60;;
29200;SDS011;16244;51.956;12.980;2022-09-24T07:13:12;12.00;;;5.60;;
29200;SDS011;16244;51.956;12.980;2022-09-24T07:15:40;13.63;;;5.40;;
29200;SDS011;16244;51.956;12.980;2022-09-24T07:18:09;9.00;;;6.03;;
29200;SDS011;16244;51.956;12.980;2022-09-24T07:20:38;8.83;;;5.60;;
29200;SDS011;16244;51.956;12.980;2022-09-24T07:23:06;8.37;;;4.97;;
29200;SDS011;16244;51.956;12.980;2022-09-24T07:25:35;9.03;;;5.17;;
29200;SDS011;16244;51.956;12.980;2022-09-24T07:28:02;10.47;;;5.67;;
29200;SDS011;16244;51.956;12.980;2022-09-24T07:30:30;10.97;;;6.60;;
29200;SDS011;16244;51.956;12.980;2022-09-24T07:32:58;7.50;;;5.10;;
29200;SDS011;16244;51.956;12.980;2022-09-24T07:35:26;9.77;;;5.80;;
29200;SDS011;16244;51.956;12.980;2022-09-24T07:37:59;10.03;;;5.73;;
29200;SDS011;16244;51.956;12.980;2022-09-24T07:40:27;10.10;;;5.73;;
29200;SDS011;16244;51.956;12.980;2022-09-24T07:42:55;7.83;;;4.80;;
29200;SDS011;16244;51.956;12.980;2022-09-24T07:45:23;8.90;;;5.37;;
29200;SDS011;16244;51.956;12.980;2022-09-24T07:47:55;9.00;;;5.33;;
29200;SDS011;16244;51.956;12.980;2022-09-24T07:50:24;12.67;;;5.23;;
29200;SDS011;16244;51.956;12.980;2022-09-24T07:52:52;9.57;;;5.00;;
29200;SDS011;16244;51.956;12.980;2022-09-24T07:55:21;7.07;;;4.63;;
29200;SDS011;16244;51.956;12.980;2022-09-24T07:57:49;7.63;;;5.23;;
29200;SDS011;16244;51.956;12.980;2022-09-24T08:00:17;10.40;;;5.10;;
29200;SDS011;16244;51.956;12.980;2022-09-24T08:02:45;15.00;;;8.83;;
29200;SDS011;16244;51.956;12.980;2022-09-24T08:05:14;13.43;;;7.30;;
29200;SDS011;16244;51.956;12.980;2022-09-24T08:07:42;10.30;;;5.03;;
29200;SDS011;16244;51.956;12.980;2022-09-24T08:10:17;12.93;;;4.90;;
29200;SDS011;16244;51.956;12.980;2022-09-24T08:12:45;11.73;;;4.70;;
29200;SDS011;16244;51.956;12.980;2022-09-24T08:15:12;9.20;;;4.07;;
29200;SDS011;16244;51.956;12.980;2022-09-24T08:17:40;10.30;;;4.63;;
29200;SDS011;16244;51.956;12.980;2022-09-24T08:20:07;9.30;;;4.10;;
29200;SDS011;16244;51.956;12.980;2022-09-24T08:22:36;9.13;;;3.87;;
29200;SDS011;16244;51.956;12.980;2022-09-24T08:25:04;13.87;;;5.30;;
29200;SDS011;16244;51.956;12.980;2022-09-24T08:27:31;12.23;;;5.63;;
29200;SDS011;16244;51.956;12.980;2022-09-24T08:30:02;10.40;;;4.40;;
29200;SDS011;16244;51.956;12.980;2022-09-24T08:32:29;11.70;;;5.00;;
29200;SDS011;16244;51.956;12.980;2022-09-24T08:34:56;11.00;;;4.47;;
29200;SDS011;16244;51.956;12.980;2022-09-24T08:37:24;12.90;;;4.60;;
29200;SDS011;16244;51.956;12.980;2022-09-24T08:39:52;14.00;;;5.27;;
29200;SDS011;16244;51.956;12.980;2022-09-24T08:42:24;11.70;;;4.27;;
29200;SDS011;16244;51.956;12.980;2022-09-24T08:45:02;11.90;;;4.17;;
29200;SDS011;16244;51.956;12.980;2022-09-24T08:47:49;12.57;;;4.33;;
29200;SDS011;16244;51.956;12.980;2022-09-24T08:50:22;13.40;;;6.10;;
29200;SDS011;16244;51.956;12.980;2022-09-24T08:53:02;14.40;;;4.90;;
29200;SDS011;16244;51.956;12.980;2022-09-24T08:55:38;12.20;;;5.33;;
29200;SDS011;16244;51.956;12.980;2022-09-24T08:58:16;11.07;;;4.30;;
29200;SDS011;16244;51.956;12.980;2022-09-24T09:00:57;10.80;;;4.40;;
29200;SDS011;16244;51.956;12.980;2022-09-24T09:03:33;13.33;;;4.80;;
29200;SDS011;16244;51.956;12.980;2022-09-24T09:06:09;11.17;;;4.67;;
29200;SDS011;16244;51.956;12.980;2022-09-24T09:08:42;14.70;;;5.67;;
29200;SDS011;16244;51.956;12.980;2022-09-24T09:11:18;10.97;;;4.83;;
29200;SDS011;16244;51.956;12.980;2022-09-24T09:13:49;10.47;;;4.90;;
29200;SDS011;16244;51.956;12.980;2022-09-24T09:16:25;12.07;;;4.70;;
29200;SDS011;16244;51.956;12.980;2022-09-24T09:19:11;19.47;;;7.60;;
29200;SDS011;16244;51.956;12.980;2022-09-24T09:21:41;14.03;;;5.23;;
29200;SDS011;16244;51.956;12.980;2022-09-24T09:24:13;19.03;;;6.53;;
29200;SDS011;16244;51.956;12.980;2022-09-24T09:26:45;9.43;;;3.97;;
29200;SDS011;16244;51.956;12.980;2022-09-24T09:29:34;15.63;;;5.80;;
29200;SDS011;16244;51.956;12.980;2022-09-24T09:32:11;20.20;;;7.50;;
29200;SDS011;16244;51.956;12.980;2022-09-24T09:35:05;19.57;;;4.87;;
29200;SDS011;16244;51.956;12.980;2022-09-24T09:37:44;12.40;;;4.40;;
29200;SDS011;16244;51.956;12.980;2022-09-24T09:40:22;11.63;;;4.63;;
29200;SDS011;16244;51.956;12.980;2022-09-24T09:42:58;12.23;;;4.87;;
29200;SDS011;16244;51.956;12.980;2022-09-24T09:45:29;15.20;;;7.47;;
29200;SDS011;16244;51.956;12.980;2022-09-24T09:48:01;17.63;;;8.30;;
29200;SDS011;16244;51.956;12.980;2022-09-24T09:50:30;14.93;;;4.30;;
29200;SDS011;16244;51.956;12.980;2022-09-24T09:53:02;13.83;;;4.30;;
29200;SDS011;16244;51.956;12.980;2022-09-24T09:55:31;15.43;;;3.90;;
29200;SDS011;16244;51.956;12.980;2022-09-24T09:58:17;14.00;;;3.93;;
29200;SDS011;16244;51.956;12.980;2022-09-24T10:01:10;11.97;;;3.23;;
29200;SDS011;16244;51.956;12.980;2022-09-24T10:04:03;13.63;;;3.53;;
29200;SDS011;16244;51.956;12.980;2022-09-24T10:07:03;18.00;;;2.73;;
29200;SDS011;16244;51.956;12.980;2022-09-24T10:09:32;11.50;;;2.80;;
29200;SDS011;16244;51.956;12.980;2022-09-24T10:12:07;11.60;;;2.93;;
29200;SDS011;16244;51.956;12.980;2022-09-24T10:14:35;12.20;;;3.57;;
29200;SDS011;16244;51.956;12.980;2022-09-24T10:17:02;9.80;;;2.97;;
29200;SDS011;16244;51.956;12.980;2022-09-24T10:19:32;24.77;;;10.27;;
29200;SDS011;16244;51.956;12.980;2022-09-24T10:22:09;11.90;;;3.60;;
29200;SDS011;16244;51.956;12.980;2022-09-24T10:24:40;11.53;;;3.00;;
29200;SDS011;16244;51.956;12.980;2022-09-24T10:27:09;14.17;;;2.70;;
29200;SDS011;16244;51.956;12.980;2022-09-24T10:29:37;9.07;;;2.87;;
29200;SDS011;16244;51.956;12.980;2022-09-24T10:32:24;9.10;;;1.90;;
29200;SDS011;16244;51.956;12.980;2022-09-24T10:34:54;10.53;;;3.30;;
29200;SDS011;16244;51.956;12.980;2022-09-24T10:37:24;11.30;;;4.17;;
29200;SDS011;16244;51.956;12.980;2022-09-24T10:39:56;10.70;;;4.13;;
29200;SDS011;16244;51.956;12.980;2022-09-24T10:42:25;12.30;;;4.30;;
29200;SDS011;16244;51.956;12.980;2022-09-24T10:44:53;9.90;;;2.97;;
29200;SDS011;16244;51.956;12.980;2022-09-24T10:47:24;9.23;;;3.00;;
29200;SDS011;16244;51.956;12.980;2022-09-24T10:50:02;10.37;;;2.50;;
29200;SDS011;16244;51.956;12.980;2022-09-24T10:52:45;13.90;;;2.73;;
29200;SDS011;16244;51.956;12.980;2022-09-24T10:55:25;12.10;;;2.23;;
29200;SDS011;16244;51.956;12.980;2022-09-24T10:58:02;11.17;;;2.20;;
29200;SDS011;16244;51.956;12.980;2022-09-24T11:00:40;9.70;;;2.27;;
29200;SDS011;16244;51.956;12.980;2022-09-24T11:03:26;7.93;;;2.00;;
29200;SDS011;16244;51.956;12.980;2022-09-24T11:06:03;9.57;;;2.27;;
29200;SDS011;16244;51.956;12.980;2022-09-24T11:08:52;16.47;;;5.40;;
29200;SDS011;16244;51.956;12.980;2022-09-24T11:11:33;10.27;;;3.50;;
29200;SDS011;16244;51.956;12.980;2022-09-24T11:14:21;11.77;;;2.93;;
29200;SDS011;16244;51.956;12.980;2022-09-24T11:17:06;10.50;;;3.00;;
29200;SDS011;16244;51.956;12.980;2022-09-24T11:19:57;10.17;;;3.23;;
29200;SDS011;16244;51.956;12.980;2022-09-24T11:22:38;14.73;;;3.17;;
29200;SDS011;16244;51.956;12.980;2022-09-24T11:25:20;10.70;;;3.60;;
29200;SDS011;16244;51.956;12.980;2022-09-24T11:28:04;10.40;;;2.87;;
29200;SDS011;16244;51.956;12.980;2022-09-24T11:30:44;11.43;;;2.77;;
29200;SDS011;16244;51.956;12.980;2022-09-24T11:33:24;18.13;;;2.80;;
29200;SDS011;16244;51.956;12.980;2022-09-24T11:39:04;11.20;;;2.70;;
29200;SDS011;16244;51.956;12.980;2022-09-24T11:41:46;10.23;;;2.57;;
29200;SDS011;16244;51.956;12.980;2022-09-24T11:44:27;9.50;;;2.73;;
29200;SDS011;16244;51.956;12.980;2022-09-24T11:47:15;10.80;;;2.57;;
29200;SDS011;16244;51.956;12.980;2022-09-24T11:49:55;9.00;;;2.50;;
29200;SDS011;16244;51.956;12.980;2022-09-24T11:52:37;8.47;;;2.17;;
29200;SDS011;16244;51.956;12.980;2022-09-24T11:55:10;8.90;;;2.37;;
29200;SDS011;16244;51.956;12.980;2022-09-24T11:57:42;8.87;;;1.77;;
29200;SDS011;16244;51.956;12.980;2022-09-24T12:00:14;7.93;;;2.00;;
29200;SDS011;16244;51.956;12.980;2022-09-24T12:02:45;9.80;;;1.83;;
29200;SDS011;16244;51.956;12.980;2022-09-24T12:05:17;21.70;;;2.30;;
29200;SDS011;16244;51.956;12.980;2022-09-24T12:07:52;8.73;;;1.73;;
29200;SDS011;16244;51.956;12.980;2022-09-24T12:10:24;17.00;;;4.80;;
29200;SDS011;16244;51.956;12.980;2022-09-24T12:13:01;11.57;;;2.07;;
29200;SDS011;16244;51.956;12.980;2022-09-24T12:15:41;11.27;;;2.10;;
29200;SDS011;16244;51.956;12.980;2022-09-24T12:18:14;9.87;;;1.60;;
29200;SDS011;16244;51.956;12.980;2022-09-24T12:20:46;14.03;;;1.87;;
29200;SDS011;16244;51.956;12.980;2022-09-24T12:23:17;9.60;;;1.93;;
29200;SDS011;16244;51.956;12.980;2022-09-24T12:25:48;8.33;;;2.13;;
29200;SDS011;16244;51.956;12.980;2022-09-24T12:28:19;9.27;;;2.00;;
29200;SDS011;16244;51.956;12.980;2022-09-24T12:31:15;10.00;;;2.03;;
29200;SDS011;16244;51.956;12.980;2022-09-24T12:34:06;10.40;;;1.47;;
29200;SDS011;16244;51.956;12.980;2022-09-24T12:36:43;8.30;;;1.30;;
29200;SDS011;16244;51.956;12.980;2022-09-24T12:39:21;9.00;;;1.83;;
29200;SDS011;16244;51.956;12.980;2022-09-24T12:41:55;8.33;;;1.53;;
29200;SDS011;16244;51.956;12.980;2022-09-24T12:44:28;13.53;;;1.80;;
29200;SDS011;16244;51.956;12.980;2022-09-24T12:47:02;7.57;;;1.23;;
29200;SDS011;16244;51.956;12.980;2022-09-24T12:49:31;12.13;;;1.90;;
29200;SDS011;16244;51.956;12.980;2022-09-24T12:52:02;9.50;;;1.83;;
29200;SDS011;16244;51.956;12.980;2022-09-24T12:54:41;8.00;;;1.57;;
29200;SDS011;16244;51.956;12.980;2022-09-24T12:57:12;11.13;;;1.60;;
29200;SDS011;16244;51.956;12.980;2022-09-24T12:59:46;9.10;;;1.93;;
29200;SDS011;16244;51.956;12.980;2022-09-24T13:02:17;14.87;;;4.07;;
29200;SDS011;16244;51.956;12.980;2022-09-24T13:04:49;12.47;;;1.57;;
29200;SDS011;16244;51.956;12.980;2022-09-24T13:07:29;10.07;;;1.70;;
29200;SDS011;16244;51.956;12.980;2022-09-24T13:10:19;9.70;;;1.63;;
29200;SDS011;16244;51.956;12.980;2022-09-24T13:12:49;16.10;;;1.83;;
29200;SDS011;16244;51.956;12.980;2022-09-24T13:15:24;10.37;;;1.50;;
29200;SDS011;16244;51.956;12.980;2022-09-24T13:18:04;8.40;;;1.73;;
29200;SDS011;16244;51.956;12.980;2022-09-24T13:20:56;8.13;;;1.60;;
29200;SDS011;16244;51.956;12.980;2022-09-24T13:23:30;10.60;;;1.50;;
29200;SDS011;16244;51.956;12.980;2022-09-24T13:26:11;7.93;;;1.43;;
29200;SDS011;16244;51.956;12.980;2022-09-24T13:28:52;8.80;;;1.90;;
29200;SDS011;16244;51.956;12.980;2022-09-24T13:31:24;14.53;;;2.10;;
29200;SDS011;16244;51.956;12.980;2022-09-24T13:34:11;9.30;;;2.17;;
29200;SDS011;16244;51.956;12.980;2022-09-24T13:36:44;8.97;;;1.93;;
29200;SDS011;16244;51.956;12.980;2022-09-24T13:39:19;8.13;;;1.67;;
29200;SDS011;16244;51.956;12.980;2022-09-24T13:41:52;11.10;;;2.47;;
29200;SDS011;16244;51.956;12.980;2022-09-24T13:44:27;9.20;;;2.10;;
29200;SDS011;16244;51.956;12.980;2022-09-24T13:46:59;27.37;;;13.30;;
29200;SDS011;16244;51.956;12.980;2022-09-24T13:49:30;11.33;;;2.53;;
29200;SDS011;16244;51.956;12.980;2022-09-24T13:52:05;12.10;;;1.97;;
29200;SDS011;16244;51.956;12.980;2022-09-24T13:54:41;10.80;;;1.83;;
29200;SDS011;16244;51.956;12.980;2022-09-24T13:57:18;11.00;;;2.40;;
29200;SDS011;16244;51.956;12.980;2022-09-24T13:59:47;12.17;;;1.80;;
29200;SDS011;16244;51.956;12.980;2022-09-24T14:02:22;12.20;;;1.77;;
29200;SDS011;16244;51.956;12.980;2022-09-24T14:04:54;11.70;;;2.27;;
29200;SDS011;16244;51.956;12.980;2022-09-24T14:07:23;9.00;;;1.67;;
29200;SDS011;16244;51.956;12.980;2022-09-24T14:10:00;7.10;;;1.80;;
29200;SDS011;16244;51.956;12.980;2022-09-24T14:12:29;9.60;;;1.83;;
29200;SDS011;16244;51.956;12.980;2022-09-24T14:14:56;10.63;;;1.67;;
29200;SDS011;16244;51.956;12.980;2022-09-24T14:17:25;7.63;;;2.00;;
29200;SDS011;16244;51.956;12.980;2022-09-24T14:19:53;8.23;;;2.10;;
29200;SDS011;16244;51.956;12.980;2022-09-24T14:22:22;7.87;;;1.83;;
29200;SDS011;16244;51.956;12.980;2022-09-24T14:24:55;9.90;;;2.23;;
29200;SDS011;16244;51.956;12.980;2022-09-24T14:27:27;7.67;;;1.60;;
29200;SDS011;16244;51.956;12.980;2022-09-24T14:29:57;8.27;;;1.90;;
29200;SDS011;16244;51.956;12.980;2022-09-24T14:32:29;11.10;;;2.70;;
29200;SDS011;16244;51.956;12.980;2022-09-24T14:34:58;9.27;;;2.27;;
29200;SDS011;16244;51.956;12.980;2022-09-24T14:37:29;9.00;;;1.70;;
29200;SDS011;16244;51.956;12.980;2022-09-24T14:39:59;15.73;;;1.90;;
29200;SDS011;16244;51.956;12.980;2022-09-24T14:42:31;10.57;;;1.50;;
29200;SDS011;16244;51.956;12.980;2022-09-24T14:45:05;9.17;;;1.97;;
29200;SDS011;16244;51.956;12.980;2022-09-24T14:47:36;10.97;;;1.80;;
29200;SDS011;16244;51.956;12.980;2022-09-24T14:52:53;8.03;;;1.33;;
29200;SDS011;16244;51.956;12.980;2022-09-24T14:55:34;7.57;;;1.40;;
29200;SDS011;16244;51.956;12.980;2022-09-24T14:58:02;7.07;;;1.30;;